Time;durP1;ratioP1;P1;durP2;ratioP2;P2;SDS_P1;SDS_P2;PMS_P1;PMS_P2;Temp;Humidity;BMP_temperature;BMP_pressure;BME280_temperature;BME280_humidity;BME280_pressure;Samples;Min_cycle;Max_cycle;Signal;HPM_P1;HPM_P2
2023/10/05 00:02:26;;;;;;;2.78;1.50;;;10.60;1.00;;;;;;5186699;28;20482;-64
2023/10/05 00:04:58;;;;;;;2.40;2.13;;;10.50;1.00;;;;;;5161614;28;20036;-67
2023/10/05 00:07:32;;;;;;;1.88;1.73;;;10.50;1.00;;;;;;5177613;28;20135;-66
2023/10/05 00:10:04;;;;;;;;;;;10.50;1.00;;;;;;5161092;28;20534;-65
2023/10/05 00:12:47;;;;;;;2.92;1.50;;;10.50;1.00;;;;;;5178154;28;19912;-65
2023/10/05 00:15:23;;;;;;;2.15;1.92;;;10.50;1.00;;;;;;5194097;28;20033;-66
2023/10/05 00:18:00;;;;;;;3.30;2.00;;;10.50;1.00;;;;;;5176988;28;20041;-66
2023/10/05 00:20:38;;;;;;;3.22;1.67;;;10.50;1.00;;;;;;5179930;28;20575;-65
2023/10/05 00:23:10;;;;;;;4.72;1.80;;;10.40;1.00;;;;;;5179917;28;20045;-65
2023/10/05 00:25:50;;;;;;;4.63;2.08;;;10.30;1.00;;;;;;5163629;28;20115;-64
2023/10/05 00:28:26;;;;;;;3.03;1.77;;;10.20;1.00;;;;;;5180490;28;20271;-67
2023/10/05 00:31:03;;;;;;;1.98;1.25;;;10.20;1.00;;;;;;5177464;28;20052;-65
2023/10/05 00:33:36;;;;;;;1.20;1.10;;;10.10;1.00;;;;;;5160723;28;20045;-64
2023/10/05 00:36:13;;;;;;;3.35;1.90;;;10.10;1.00;;;;;;5162491;28;20056;-64
2023/10/05 00:38:44;;;;;;;2.80;1.80;;;10.10;1.00;;;;;;5163931;28;20115;-67
2023/10/05 00:41:22;;;;;;;1.98;1.75;;;10.10;1.00;;;;;;5179905;28;20033;-67
2023/10/05 00:43:54;;;;;;;2.33;1.60;;;10.10;1.00;;;;;;5142376;28;20048;-66
2023/10/05 00:46:26;;;;;;;2.63;1.73;;;10.10;1.00;;;;;;5157905;28;20034;-65
2023/10/05 00:49:12;;;;;;;1.70;1.38;;;10.00;1.00;;;;;;5167080;28;20045;-65
2023/10/05 00:51:55;;;;;;;2.50;1.55;;;9.90;1.00;;;;;;5186055;28;20041;-66
2023/10/05 00:54:31;;;;;;;2.55;1.73;;;9.80;1.00;;;;;;5170767;28;20037;-65
2023/10/05 00:57:14;;;;;;;1.92;1.50;;;9.80;1.00;;;;;;5184308;28;20489;-64
2023/10/05 01:02:31;;;;;;;2.33;1.67;;;9.90;1.00;;;;;;5208088;23;20041;-93
2023/10/05 01:05:15;;;;;;;1.83;1.60;;;9.90;1.00;;;;;;5193221;28;20046;-92
2023/10/05 01:07:56;;;;;;;2.30;1.45;;;9.90;1.00;;;;;;5187241;28;20047;-93
2023/10/05 01:10:40;;;;;;;3.30;1.63;;;9.90;1.00;;;;;;5183746;28;20033;-91
2023/10/05 01:13:31;;;;;;;2.73;1.70;;;9.80;1.00;;;;;;5185333;28;20117;-90
2023/10/05 01:19:57;;;;;;;4.50;1.52;;;9.70;1.00;;;;;;5201780;28;20036;-92
2023/10/05 01:22:38;;;;;;;5.15;1.40;;;9.80;1.00;;;;;;5202978;28;20044;-91
2023/10/05 01:25:14;;;;;;;2.03;1.20;;;9.80;1.00;;;;;;5185022;28;20120;-91
2023/10/05 01:27:51;;;;;;;1.88;1.55;;;9.80;1.00;;;;;;5183057;28;20059;-93
2023/10/05 01:30:29;;;;;;;2.35;1.92;;;9.70;1.00;;;;;;5183633;28;20034;-91
2023/10/05 01:33:04;;;;;;;1.73;1.52;;;9.60;1.00;;;;;;5184479;28;20120;-91
2023/10/05 01:35:41;;;;;;;2.25;1.20;;;9.50;1.00;;;;;;5199443;28;20044;-90
2023/10/05 01:38:13;;;;;;;2.70;1.48;;;9.50;1.00;;;;;;5201549;28;20211;-91
2023/10/05 01:40:49;;;;;;;1.52;1.35;;;9.40;1.00;;;;;;5202854;28;20038;-92
2023/10/05 01:43:29;;;;;;;1.30;1.20;;;9.20;1.00;;;;;;5171150;28;20033;-93
2023/10/05 01:46:02;;;;;;;1.80;1.40;;;9.10;1.00;;;;;;5173114;28;20048;-90
2023/10/05 01:48:36;;;;;;;1.40;1.30;;;9.00;1.00;;;;;;5202374;28;20034;-90
2023/10/05 01:54:55;;;;;;;1.50;1.40;;;8.90;1.00;;;;;;5205610;28;20048;-91
2023/10/05 01:57:28;;;;;;;1.40;1.30;;;8.80;1.00;;;;;;5191082;28;20054;-92
2023/10/05 02:00:14;;;;;;;1.60;1.30;;;8.80;1.00;;;;;;5191945;28;20042;-91
2023/10/05 02:03:11;;;;;;;3.20;1.60;;;8.80;1.00;;;;;;5209502;28;20040;-91
2023/10/05 02:05:48;;;;;;;1.55;1.35;;;8.90;1.00;;;;;;5191214;28;20084;-91
2023/10/05 02:08:22;;;;;;;3.08;1.30;;;8.90;1.00;;;;;;5191507;28;20057;-91
2023/10/05 02:10:59;;;;;;;2.50;1.70;;;8.90;1.00;;;;;;5224399;28;20054;-91
2023/10/05 02:13:31;;;;;;;1.10;1.10;;;9.00;1.00;;;;;;5191461;28;20344;-91
2023/10/05 02:16:18;;;;;;;4.38;1.60;;;9.00;1.00;;;;;;5207561;28;20037;-91
2023/10/05 02:18:49;;;;;;;1.50;1.40;;;8.90;1.00;;;;;;5187826;22;20037;-66
2023/10/05 02:21:36;;;;;;;2.72;1.25;;;8.80;1.00;;;;;;5201040;28;20053;-66
2023/10/05 02:24:19;;;;;;;1.52;1.42;;;8.70;1.00;;;;;;5203425;28;20111;-67
2023/10/05 02:29:33;;;;;;;4.10;2.00;;;8.70;1.00;;;;;;5204922;28;20116;-68
2023/10/05 02:32:11;;;;;;;1.65;1.25;;;8.90;1.00;;;;;;5196004;28;20059;-66
2023/10/05 02:34:59;;;;;;;2.03;1.88;;;9.00;1.00;;;;;;5197582;28;20051;-66
2023/10/05 02:37:39;;;;;;;4.82;1.60;;;9.10;1.00;;;;;;5198712;28;20241;-66
2023/10/05 02:40:15;;;;;;;1.45;1.20;;;9.20;1.00;;;;;;5164844;28;20088;-67
2023/10/05 02:42:54;;;;;;;1.98;1.50;;;9.20;1.00;;;;;;5205147;28;20401;-67
2023/10/05 02:45:36;;;;;;;2.05;1.75;;;9.10;1.00;;;;;;5199633;28;20056;-67
2023/10/05 02:48:11;;;;;;;1.85;1.30;;;9.00;1.00;;;;;;5177699;28;20140;-67
2023/10/05 02:50:45;;;;;;;2.17;1.58;;;8.90;1.00;;;;;;5184843;28;20049;-67
2023/10/05 02:53:27;;;;;;;;;;;8.80;1.00;;;;;;5191487;28;20248;-66
2023/10/05 02:55:59;;;;;;;1.77;1.23;;;8.80;1.00;;;;;;5192190;28;20368;-66
2023/10/05 02:58:30;;;;;;;1.98;1.50;;;8.70;1.00;;;;;;5213763;28;20144;-66
2023/10/05 03:01:15;;;;;;;2.67;1.67;;;8.70;1.00;;;;;;5233334;28;20340;-66
2023/10/05 03:03:51;;;;;;;;;;;8.60;1.00;;;;;;5196988;28;20063;-66
2023/10/05 03:06:23;;;;;;;1.33;1.17;;;8.60;1.00;;;;;;5193729;28;19925;-66
2023/10/05 03:09:07;;;;;;;1.88;1.40;;;8.50;1.00;;;;;;5196293;28;20040;-65
2023/10/05 03:11:47;;;;;;;3.80;1.80;;;8.50;1.00;;;;;;5218475;28;20049;-65
2023/10/05 03:14:18;;;;;;;1.40;1.30;;;8.40;1.00;;;;;;5217741;28;20047;-65
2023/10/05 03:16:56;;;;;;;1.58;1.27;;;8.40;1.00;;;;;;5214281;28;20323;-65
2023/10/05 03:19:34;;;;;;;1.30;1.20;;;8.30;1.00;;;;;;5186160;28;20037;-65
2023/10/05 03:22:11;;;;;;;2.53;1.20;;;8.30;26.70;;;;;;5190206;28;20041;-65
2023/10/05 03:24:47;;;;;;;2.75;1.63;;;8.20;45.70;;;;;;5196834;28;20055;-66
2023/10/05 03:27:21;;;;;;;2.08;1.30;;;8.20;58.70;;;;;;5182034;28;20048;-64
2023/10/05 03:30:05;;;;;;;1.58;1.48;;;8.20;81.10;;;;;;5197035;28;20125;-65
2023/10/05 03:32:37;;;;;;;2.55;1.50;;;8.20;99.90;;;;;;5198270;28;20058;-66
2023/10/05 03:35:09;;;;;;;4.68;1.25;;;8.10;93.90;;;;;;5196479;28;20220;-65
2023/10/05 03:37:41;;;;;;;1.30;1.20;;;8.10;99.90;;;;;;5179405;28;20480;-65
2023/10/05 03:40:35;;;;;;;2.08;1.30;;;8.10;99.90;;;;;;5162721;28;20056;-65
2023/10/05 03:43:06;;;;;;;2.25;1.45;;;8.00;99.90;;;;;;5149084;28;20067;-65
2023/10/05 03:45:39;;;;;;;1.58;1.40;;;8.00;99.90;;;;;;5160019;28;20038;-65
2023/10/05 03:48:13;;;;;;;3.85;1.38;;;8.00;99.90;;;;;;5179629;28;20041;-65
2023/10/05 03:50:47;;;;;;;4.10;1.73;;;8.00;99.90;;;;;;5163798;28;20447;-64
2023/10/05 03:53:24;;;;;;;3.25;1.80;;;8.00;99.90;;;;;;5176988;28;20372;-65
2023/10/05 03:55:58;;;;;;;4.47;1.80;;;8.00;99.90;;;;;;5146236;28;20041;-65
2023/10/05 03:58:36;;;;;;;4.57;1.38;;;7.90;99.90;;;;;;5195942;28;20034;-65
2023/10/05 04:01:12;;;;;;;2.22;1.80;;;7.90;99.90;;;;;;5176528;28;20029;-64
2023/10/05 04:03:46;;;;;;;1.40;1.27;;;7.90;99.90;;;;;;5173725;28;20042;-65
2023/10/05 04:06:18;;;;;;;2.97;1.70;;;7.80;99.90;;;;;;5158810;28;20041;-67
2023/10/05 04:08:57;;;;;;;2.63;2.03;;;7.80;99.90;;;;;;5191522;28;20037;-65
2023/10/05 04:11:33;;;;;;;2.55;1.42;;;7.70;99.90;;;;;;5195348;28;20322;-65
2023/10/05 04:14:05;;;;;;;2.72;1.42;;;7.70;99.90;;;;;;5176246;28;20056;-67
2023/10/05 04:16:36;;;;;;;2.40;1.55;;;7.70;99.90;;;;;;5160905;28;20296;-65
2023/10/05 04:19:11;;;;;;;3.13;1.60;;;7.70;99.90;;;;;;5179250;28;20052;-65
2023/10/05 04:21:42;;;;;;;3.88;1.75;;;7.70;99.90;;;;;;5161097;28;20041;-65
2023/10/05 04:24:14;;;;;;;1.77;1.50;;;7.80;99.90;;;;;;5163704;28;20050;-64
2023/10/05 04:26:48;;;;;;;3.47;1.50;;;7.90;99.90;;;;;;5146344;28;20206;-67
2023/10/05 04:29:23;;;;;;;2.83;1.67;;;7.90;99.90;;;;;;5150138;28;20534;-64
2023/10/05 04:31:58;;;;;;;2.22;1.35;;;8.10;99.90;;;;;;5176583;28;20029;-65
2023/10/05 04:34:37;;;;;;;1.92;1.60;;;8.10;99.90;;;;;;5178705;28;20041;-64
2023/10/05 04:37:14;;;;;;;2.53;2.10;;;8.00;99.90;;;;;;5166635;28;20436;-66
2023/10/05 04:39:49;;;;;;;1.60;1.50;;;8.00;99.90;;;;;;5183386;28;20047;-66
2023/10/05 04:42:23;;;;;;;3.03;1.45;;;8.00;99.90;;;;;;5194962;28;20060;-64
2023/10/05 04:45:02;;;;;;;;;;;7.90;99.90;;;;;;5179410;28;20045;-65
2023/10/05 04:47:34;;;;;;;1.30;1.10;;;8.00;99.90;;;;;;5143192;28;19921;-65
2023/10/05 04:50:13;;;;;;;10.85;1.85;;;8.00;99.90;;;;;;5166520;28;20572;-66
2023/10/05 04:52:54;;;;;;;2.53;1.30;;;8.00;99.90;;;;;;5174159;28;20043;-65
2023/10/05 04:55:41;;;;;;;2.78;1.85;;;7.90;99.90;;;;;;5182110;28;20251;-65
2023/10/05 04:58:53;;;;;;;2.15;1.75;;;7.90;99.90;;;;;;5187959;28;20053;-69
2023/10/05 05:01:46;;;;;;;1.90;1.35;;;7.90;99.90;;;;;;5155230;28;20052;-69
2023/10/05 05:07:19;;;;;;;1.52;1.30;;;7.80;99.90;;;;;;5199163;28;20037;-67
2023/10/05 05:09:55;;;;;;;2.47;1.58;;;7.80;99.90;;;;;;5177372;28;20037;-64
2023/10/05 05:12:29;;;;;;;4.00;1.92;;;7.80;99.90;;;;;;5180527;28;20455;-66
2023/10/05 05:15:05;;;;;;;2.53;1.90;;;7.80;99.90;;;;;;5182026;28;20048;-68
2023/10/05 05:17:40;;;;;;;3.28;1.80;;;7.90;99.90;;;;;;5195492;28;20040;-66
2023/10/05 05:20:15;;;;;;;1.98;1.50;;;8.10;99.90;;;;;;5187318;28;20048;-65
2023/10/05 05:22:52;;;;;;;3.03;2.08;;;8.20;99.90;;;;;;5224942;28;20025;-65
2023/10/05 05:25:28;;;;;;;3.28;1.73;;;8.20;99.90;;;;;;5202497;28;20044;-64
2023/10/05 05:28:05;;;;;;;2.70;1.95;;;8.30;99.90;;;;;;5232860;28;20062;-65
2023/10/05 05:30:40;;;;;;;4.03;1.60;;;8.40;99.90;;;;;;5228740;28;20036;-66
2023/10/05 05:33:17;;;;;;;3.08;1.80;;;8.60;99.90;;;;;;5223488;28;20032;-65
2023/10/05 05:35:51;;;;;;;4.05;2.13;;;8.80;99.90;;;;;;5220786;28;20052;-65
2023/10/05 05:38:22;;;;;;;3.30;2.50;;;8.90;99.90;;;;;;5218756;28;20040;-65
2023/10/05 05:40:57;;;;;;;4.00;2.03;;;8.90;99.90;;;;;;5232289;28;20219;-65
2023/10/05 05:43:29;;;;;;;;;;;9.00;99.90;;;;;;5203395;28;20078;-65
2023/10/05 05:46:04;;;;;;;4.78;1.65;;;9.20;99.90;;;;;;5199773;28;20376;-64
2023/10/05 05:48:36;;;;;;;7.50;1.70;;;9.30;40.20;;;;;;5231776;28;20043;-65
2023/10/05 05:51:14;;;;;;;4.30;2.00;;;9.40;1.00;;;;;;5207296;28;20280;-66
2023/10/05 05:53:48;;;;;;;6.70;1.83;;;9.60;1.00;;;;;;5201472;28;20373;-65
2023/10/05 05:56:28;;;;;;;;;;;9.80;1.00;;;;;;5209706;28;20398;-67
2023/10/05 05:59:06;;;;;;;4.28;2.95;;;9.90;1.00;;;;;;5227164;28;19932;-65
2023/10/05 06:01:39;;;;;;;3.88;1.92;;;10.10;1.00;;;;;;5219671;28;20047;-64
2023/10/05 06:04:11;;;;;;;4.63;2.00;;;10.30;1.00;;;;;;5202587;28;20305;-64
2023/10/05 06:06:44;;;;;;;3.53;2.03;;;10.50;1.00;;;;;;5221437;28;20370;-64
2023/10/05 06:09:19;;;;;;;3.17;1.92;;;10.60;1.00;;;;;;5204054;28;20437;-64
2023/10/05 06:11:51;;;;;;;5.13;2.25;;;10.80;1.00;;;;;;5227299;28;20225;-65
2023/10/05 06:14:23;;;;;;;5.05;1.88;;;11.00;1.00;;;;;;5237309;28;20216;-65
2023/10/05 06:16:55;;;;;;;4.95;2.85;;;11.20;1.00;;;;;;5226371;28;20429;-65
2023/10/05 06:19:27;;;;;;;8.70;2.70;;;11.20;1.00;;;;;;5219081;28;20032;-65
2023/10/05 06:22:03;;;;;;;4.05;1.88;;;11.30;1.00;;;;;;5210746;28;20329;-65
2023/10/05 06:24:42;;;;;;;4.72;2.20;;;11.30;1.00;;;;;;5198379;28;20044;-66
2023/10/05 06:27:15;;;;;;;4.63;2.20;;;11.40;1.00;;;;;;5209794;28;20075;-67
2023/10/05 06:29:49;;;;;;;7.75;2.00;;;11.50;1.00;;;;;;5202507;28;20438;-67
2023/10/05 06:32:20;;;;;;;4.13;2.25;;;11.70;99.90;;;;;;5188482;28;20044;-64
2023/10/05 06:34:57;;;;;;;3.17;2.80;;;12.00;1.00;;;;;;5223761;28;20031;-64
2023/10/05 06:37:32;;;;;;;3.92;2.05;;;12.30;99.90;;;;;;5226927;28;20040;-65
2023/10/05 06:40:10;;;;;;;3.83;2.40;;;12.40;1.00;;;;;;5211920;28;20348;-65
2023/10/05 06:42:44;;;;;;;6.20;2.53;;;12.40;1.00;;;;;;5187539;28;20428;-65
2023/10/05 06:45:17;;;;;;;4.80;2.90;;;12.50;1.00;;;;;;5223690;28;20232;-65
2023/10/05 06:47:52;;;;;;;3.70;2.20;;;12.90;1.00;;;;;;5197927;28;20036;-66
2023/10/05 06:50:25;;;;;;;4.97;2.78;;;13.30;1.00;;;;;;5211281;28;20032;-66
2023/10/05 06:52:57;;;;;;;6.68;2.60;;;13.80;99.90;;;;;;5184686;28;20181;-66
2023/10/05 06:55:31;;;;;;;7.22;2.92;;;14.40;1.00;;;;;;5208768;28;20289;-65
2023/10/05 06:58:06;;;;;;;6.30;2.53;;;15.00;73.70;;;;;;5210017;28;20048;-65
2023/10/05 07:00:37;;;;;;;2.63;2.05;;;15.70;1.00;;;;;;5216004;28;20368;-65
2023/10/05 07:03:11;;;;;;;5.15;2.22;;;16.40;99.90;;;;;;5198890;28;20047;-67
2023/10/05 07:05:45;;;;;;;4.72;2.13;;;17.00;99.90;;;;;;5229696;28;20385;-67
2023/10/05 07:08:16;;;;;;;3.85;2.17;;;17.50;1.00;;;;;;5211891;28;20292;-67
2023/10/05 07:10:48;;;;;;;6.32;2.17;;;17.90;1.00;;;;;;5191584;28;20043;-65
2023/10/05 07:13:23;;;;;;;3.08;2.20;;;18.10;99.90;;;;;;5223868;28;20043;-65
2023/10/05 07:15:58;;;;;;;5.88;2.60;;;18.30;99.90;;;;;;5216210;28;20029;-66
2023/10/05 07:18:29;;;;;;;3.40;2.15;;;18.50;99.90;;;;;;5229298;28;20059;-66
2023/10/05 07:21:04;;;;;;;6.18;3.28;;;18.80;1.00;;;;;;5216361;28;20044;-66
2023/10/05 07:23:38;;;;;;;5.60;3.30;;;18.80;1.00;;;;;;5190475;28;20331;-67
2023/10/05 07:26:11;;;;;;;4.23;2.13;;;18.90;1.00;;;;;;5220796;28;20043;-65
2023/10/05 07:28:43;;;;;;;3.25;2.15;;;18.80;1.00;;;;;;5215169;28;20040;-66
2023/10/05 07:31:20;;;;;;;5.65;2.50;;;18.80;1.00;;;;;;5190751;28;20052;-66
2023/10/05 07:33:52;;;;;;;3.38;3.05;;;18.70;1.00;;;;;;5221962;28;20032;-66
2023/10/05 07:36:24;;;;;;;5.53;2.05;;;18.70;1.00;;;;;;5194173;28;20044;-68
2023/10/05 07:38:55;;;;;;;3.88;2.50;;;18.90;1.00;;;;;;5222540;28;20427;-66
2023/10/05 07:41:29;;;;;;;4.07;1.95;;;19.10;1.00;;;;;;5191585;28;20173;-66
2023/10/05 07:44:02;;;;;;;2.65;1.92;;;19.10;99.90;;;;;;5209305;28;20041;-66
2023/10/05 07:46:39;;;;;;;3.03;2.25;;;18.30;99.90;;;;;;5195353;28;20067;-66
2023/10/05 07:49:10;;;;;;;3.42;1.95;;;18.60;99.90;;;;;;5197170;28;20055;-66
2023/10/05 07:51:46;;;;;;;5.03;1.90;;;18.50;99.90;;;;;;5225404;28;20318;-66
2023/10/05 07:54:18;;;;;;;3.97;2.30;;;18.90;1.00;;;;;;5211679;28;20316;-66
2023/10/05 07:56:52;;;;;;;2.53;1.73;;;19.10;99.90;;;;;;5199847;28;20033;-68
2023/10/05 07:59:31;;;;;;;3.28;1.60;;;19.30;99.90;;;;;;5211300;28;20036;-68
2023/10/05 08:02:09;;;;;;;4.72;1.80;;;19.40;99.90;;;;;;5203587;28;20033;-66
2023/10/05 08:04:44;;;;;;;5.78;1.85;;;19.30;99.90;;;;;;5225857;28;20238;-66
2023/10/05 08:07:18;;;;;;;3.15;2.00;;;19.30;99.90;;;;;;5194180;28;20035;-66
2023/10/05 08:09:55;;;;;;;5.03;2.25;;;19.50;99.90;;;;;;5229730;28;20184;-67
2023/10/05 08:12:28;;;;;;;4.20;2.20;;;19.50;99.90;;;;;;5204348;28;20048;-68
2023/10/05 08:15:05;;;;;;;1.73;1.63;;;19.70;99.90;;;;;;5213456;28;20329;-68
2023/10/05 08:17:39;;;;;;;3.17;1.80;;;19.70;68.10;;;;;;5211937;28;20033;-66
2023/10/05 08:20:15;;;;;;;3.40;2.35;;;19.70;19.50;;;;;;5207890;28;20334;-65
2023/10/05 08:22:52;;;;;;;3.28;2.00;;;19.60;50.00;;;;;;5211107;28;20048;-67
2023/10/05 08:25:28;;;;;;;1.83;1.55;;;19.50;1.00;;;;;;5210198;28;20040;-68
2023/10/05 08:28:02;;;;;;;3.95;2.20;;;19.70;1.00;;;;;;5225321;28;20044;-67
2023/10/05 08:30:49;;;;;;;3.78;2.22;;;19.90;1.00;;;;;;5191376;28;20045;-67
2023/10/05 08:33:22;;;;;;;2.75;1.88;;;19.90;1.00;;;;;;5213450;28;20021;-66
2023/10/05 08:35:56;;;;;;;4.43;1.83;;;20.10;1.00;;;;;;5194056;28;20249;-67
2023/10/05 08:38:28;;;;;;;2.67;2.13;;;20.10;13.20;;;;;;5211602;28;20032;-67
2023/10/05 08:41:07;;;;;;;3.63;2.00;;;19.80;1.00;;;;;;5213298;28;20105;-67
2023/10/05 08:43:39;;;;;;;4.40;2.28;;;19.70;1.00;;;;;;5216749;28;20304;-66
2023/10/05 08:46:14;;;;;;;2.45;1.80;;;19.90;1.00;;;;;;5196724;28;20269;-67
2023/10/05 08:48:46;;;;;;;6.00;2.45;;;20.00;9.00;;;;;;5174338;28;20232;-66
2023/10/05 08:51:24;;;;;;;4.88;1.90;;;20.00;1.00;;;;;;5191070;28;20037;-68
2023/10/05 08:54:02;;;;;;;3.10;2.40;;;20.00;1.00;;;;;;5186557;28;20032;-67
2023/10/05 08:56:34;;;;;;;3.92;2.03;;;20.10;1.00;;;;;;5217917;28;20328;-67
2023/10/05 08:59:13;;;;;;;3.25;1.80;;;20.30;1.00;;;;;;5225703;28;20055;-66
2023/10/05 09:01:46;;;;;;;2.88;2.00;;;20.60;1.00;;;;;;5229430;28;20409;-68
2023/10/05 09:07:08;;;;;;;3.45;2.13;;;21.20;60.30;;;;;;5229385;28;20028;-67
2023/10/05 09:09:54;;;;;;;2.70;1.98;;;21.60;1.00;;;;;;5215548;28;20122;-68
2023/10/05 09:12:37;;;;;;;2.15;1.63;;;21.70;1.00;;;;;;5212225;28;20036;-69
2023/10/05 09:15:27;;;;;;;3.65;2.15;;;21.70;1.00;;;;;;5207231;28;20036;-67
2023/10/05 09:18:17;;;;;;;3.30;2.40;;;21.90;1.00;;;;;;5198343;28;20177;-67
2023/10/05 09:20:51;;;;;;;4.82;2.33;;;21.90;1.00;;;;;;5216126;28;20333;-67
2023/10/05 09:23:33;;;;;;;3.17;2.53;;;21.30;1.00;;;;;;5226581;28;20044;-66
2023/10/05 09:26:33;;;;;;;5.07;2.30;;;21.20;1.00;;;;;;5200951;28;20083;-67
2023/10/05 09:29:32;;;;;;;3.92;2.10;;;21.40;1.00;;;;;;5179782;28;20033;-67
2023/10/05 09:32:36;;;;;;;4.70;2.08;;;21.70;1.00;;;;;;5193483;28;20033;-68
2023/10/05 09:35:26;;;;;;;5.22;2.50;;;22.00;1.00;;;;;;5201897;28;20040;-68
2023/10/05 09:37:58;;;;;;;2.58;1.80;;;22.20;1.00;;;;;;5193363;28;20045;-68
2023/10/05 09:40:35;;;;;;;6.43;2.10;;;22.50;1.00;;;;;;5198850;28;20147;-67
2023/10/05 09:43:12;;;;;;;5.90;1.95;;;22.60;1.00;;;;;;5203164;28;20080;-68
2023/10/05 09:45:43;;;;;;;3.17;1.90;;;22.70;1.00;;;;;;5202918;28;20302;-68
2023/10/05 09:48:21;;;;;;;3.80;2.30;;;22.90;1.00;;;;;;5220357;28;20059;-68
2023/10/05 09:50:53;;;;;;;5.25;2.05;;;23.20;1.00;;;;;;5175651;28;20053;-67
2023/10/05 09:53:28;;;;;;;3.13;1.80;;;23.50;1.00;;;;;;5195611;28;20347;-67
2023/10/05 09:56:01;;;;;;;4.15;2.13;;;24.00;1.00;;;;;;5213436;28;20041;-67
2023/10/05 09:58:39;;;;;;;5.80;1.73;;;24.30;1.00;;;;;;5212286;28;20213;-67
2023/10/05 10:01:12;;;;;;;5.18;1.60;;;24.30;1.00;;;;;;5208574;28;20032;-66
2023/10/05 10:03:49;;;;;;;4.32;1.85;;;24.40;1.00;;;;;;5206527;28;20329;-68
2023/10/05 10:06:28;;;;;;;6.85;1.95;;;24.60;1.00;;;;;;5207172;28;20044;-66
2023/10/05 10:09:10;;;;;;;3.25;1.60;;;24.90;1.00;;;;;;5213427;28;20046;-68
2023/10/05 10:11:44;;;;;;;4.47;1.70;;;25.50;1.00;;;;;;5179193;28;20044;-67
2023/10/05 10:14:26;;;;;;;7.35;1.70;;;26.10;99.90;;;;;;5223044;28;20201;-68
2023/10/05 10:17:00;;;;;;;3.35;1.58;;;26.10;99.90;;;;;;5193625;28;20058;-68
2023/10/05 10:19:45;;;;;;;4.57;1.77;;;25.90;99.90;;;;;;5211274;28;20209;-67
2023/10/05 10:22:28;;;;;;;;;;;25.20;99.90;;;;;;5192431;28;20051;-67
2023/10/05 10:25:10;;;;;;;5.18;1.35;;;26.00;99.90;;;;;;5191991;28;20015;-68
2023/10/05 10:27:41;;;;;;;2.80;1.73;;;27.40;1.00;;;;;;5200585;28;20368;-68
2023/10/05 10:30:15;;;;;;;3.35;1.55;;;28.20;99.90;;;;;;5223715;28;20021;-68
2023/10/05 10:33:12;;;;;;;3.10;1.45;;;27.70;99.90;;;;;;5212032;28;20055;-69
2023/10/05 10:35:46;;;;;;;2.75;1.80;;;27.70;99.90;;;;;;5212930;28;20044;-68
2023/10/05 10:38:20;;;;;;;3.00;1.33;;;26.60;99.90;;;;;;5192560;28;20052;-67
2023/10/05 10:41:15;;;;;;;;;;;27.50;99.90;;;;;;5215342;28;20047;-68
2023/10/05 10:43:57;;;;;;;2.60;1.38;;;28.60;99.90;;;;;;5175714;28;19916;-68
2023/10/05 10:46:34;;;;;;;2.58;1.50;;;28.80;99.90;;;;;;5175309;28;20033;-68
2023/10/05 10:49:07;;;;;;;1.83;1.33;;;28.20;1.00;;;;;;5192438;28;20202;-68
2023/10/05 10:51:43;;;;;;;3.80;1.23;;;27.60;99.90;;;;;;5218383;28;20039;-68
2023/10/05 10:54:21;;;;;;;1.80;1.40;;;28.30;99.90;;;;;;5175023;28;20037;-70
2023/10/05 10:56:54;;;;;;;2.17;1.30;;;27.80;99.90;;;;;;5202132;28;20048;-69
2023/10/05 10:59:41;;;;;;;3.38;1.40;;;26.90;99.90;;;;;;5224760;28;20033;-69
2023/10/05 11:02:23;;;;;;;5.07;1.35;;;25.60;99.90;;;;;;5201007;28;20462;-69
2023/10/05 11:05:04;;;;;;;3.03;1.20;;;25.70;99.90;;;;;;5208531;28;20299;-68
2023/10/05 11:07:36;;;;;;;2.22;1.42;;;25.70;99.90;;;;;;5227127;28;20375;-69
2023/10/05 11:10:22;;;;;;;2.53;1.25;;;25.80;99.90;;;;;;5197919;28;20055;-68
2023/10/05 11:12:57;;;;;;;2.00;1.40;;;26.70;99.90;;;;;;5180800;28;20361;-69
2023/10/05 11:15:31;;;;;;;3.15;1.60;;;26.10;99.90;;;;;;5204921;28;20035;-69
2023/10/05 11:18:04;;;;;;;;;;;25.30;99.90;;;;;;5209707;28;20024;-68
2023/10/05 11:20:39;;;;;;;3.28;1.30;;;24.20;99.90;;;;;;5224428;28;19920;-67
2023/10/05 11:23:11;;;;;;;3.60;1.67;;;23.60;99.90;;;;;;5229651;28;20329;-68
2023/10/05 11:25:44;;;;;;;1.63;1.40;;;24.10;99.90;;;;;;5228160;28;20146;-67
2023/10/05 11:28:24;;;;;;;3.33;1.67;;;23.90;99.90;;;;;;5209345;28;20504;-67
2023/10/05 11:30:56;;;;;;;2.92;1.70;;;23.90;99.90;;;;;;5210981;28;20333;-68
2023/10/05 11:33:34;;;;;;;3.60;1.65;;;24.90;99.90;;;;;;5213627;28;20515;-68
2023/10/05 11:36:27;;;;;;;1.40;1.30;;;26.10;99.90;;;;;;5208836;28;20048;-69
2023/10/05 11:38:59;;;;;;;1.75;1.30;;;25.50;99.90;;;;;;5228639;28;20033;-68
2023/10/05 11:41:33;;;;;;;1.38;1.10;;;25.00;99.90;;;;;;5212846;28;20037;-68
2023/10/05 11:44:12;;;;;;;2.55;1.40;;;25.70;99.90;;;;;;5208959;28;20056;-70
2023/10/05 11:46:46;;;;;;;1.63;1.40;;;26.30;99.90;;;;;;5227065;28;20032;-66
2023/10/05 11:49:21;;;;;;;2.78;1.33;;;26.60;99.90;;;;;;5193039;28;20078;-67
2023/10/05 11:51:56;;;;;;;3.45;1.52;;;27.40;99.90;;;;;;5207824;28;20044;-67
2023/10/05 11:54:31;;;;;;;2.08;1.50;;;28.00;99.90;;;;;;5211399;28;20044;-68
2023/10/05 11:57:07;;;;;;;1.55;1.10;;;27.10;99.90;;;;;;5214983;28;20036;-68
2023/10/05 11:59:39;;;;;;;2.63;1.30;;;26.20;99.90;;;;;;5194676;28;20597;-69
2023/10/05 12:02:11;;;;;;;4.60;1.60;;;25.40;99.90;;;;;;5205624;28;20052;-68
2023/10/05 12:04:43;;;;;;;1.48;1.05;;;26.70;99.90;;;;;;5196011;28;20360;-68
2023/10/05 12:07:14;;;;;;;1.73;1.30;;;26.60;99.90;;;;;;5228688;28;20684;-68
2023/10/05 12:09:48;;;;;;;2.30;1.38;;;27.50;99.90;;;;;;5224891;28;20046;-68
2023/10/05 12:12:20;;;;;;;2.40;1.10;;;28.20;99.90;;;;;;5217706;28;20040;-68
2023/10/05 12:14:55;;;;;;;1.70;1.17;;;29.40;99.90;;;;;;5213495;28;20404;-68
2023/10/05 12:17:30;;;;;;;1.90;1.45;;;29.70;99.90;;;;;;5211050;28;20347;-69
2023/10/05 12:20:01;;;;;;;2.47;1.42;;;30.60;99.90;;;;;;5206576;28;20060;-68
2023/10/05 12:22:37;;;;;;;5.00;1.60;;;29.80;99.90;;;;;;5207993;28;20037;-69
2023/10/05 12:25:09;;;;;;;2.78;1.50;;;28.90;99.90;;;;;;5208023;28;20032;-70
2023/10/05 12:27:41;;;;;;;2.30;1.40;;;29.30;99.90;;;;;;5211840;28;20021;-69
2023/10/05 12:30:16;;;;;;;3.70;1.30;;;29.30;1.00;;;;;;5218157;28;20044;-69
2023/10/05 12:32:51;;;;;;;4.75;1.50;;;29.40;99.90;;;;;;5229211;28;20032;-68
2023/10/05 12:35:22;;;;;;;2.42;1.40;;;27.90;99.90;;;;;;5211836;28;20480;-68
2023/10/05 12:37:58;;;;;;;1.73;1.25;;;27.40;99.90;;;;;;5211376;28;20497;-68
2023/10/05 12:40:33;;;;;;;2.55;1.40;;;27.20;99.90;;;;;;5194709;28;20046;-68
2023/10/05 12:43:06;;;;;;;2.25;1.40;;;28.10;99.90;;;;;;5193929;28;20040;-68
2023/10/05 12:45:38;;;;;;;1.80;1.30;;;28.40;99.90;;;;;;5193761;28;20052;-68
2023/10/05 12:48:11;;;;;;;2.10;1.40;;;27.50;1.00;;;;;;5210613;28;20266;-68
2023/10/05 12:50:43;;;;;;;2.53;1.58;;;27.70;99.90;;;;;;5216182;28;20040;-68
2023/10/05 12:53:14;;;;;;;6.10;1.38;;;27.50;1.00;;;;;;5201752;28;20044;-68
2023/10/05 12:55:46;;;;;;;4.60;1.40;;;26.70;99.90;;;;;;5205524;28;20040;-67
2023/10/05 12:58:23;;;;;;;2.38;1.33;;;26.50;99.90;;;;;;5214806;28;20049;-68
2023/10/05 13:01:12;;;;;;;2.58;1.27;;;26.60;1.00;;;;;;5211849;28;20024;-67
2023/10/05 13:03:49;;;;;;;2.83;1.77;;;26.00;99.90;;;;;;5224808;28;20039;-67
2023/10/05 13:06:24;;;;;;;2.55;1.67;;;25.90;99.90;;;;;;5212421;28;20044;-67
2023/10/05 13:08:56;;;;;;;3.05;1.95;;;25.90;1.00;;;;;;5221007;28;20035;-67
2023/10/05 13:11:30;;;;;;;3.03;1.58;;;26.00;99.90;;;;;;5230080;28;20040;-68
2023/10/05 13:14:08;;;;;;;2.67;1.40;;;26.60;99.90;;;;;;5208267;28;20348;-67
2023/10/05 13:16:44;;;;;;;2.22;1.10;;;26.60;1.00;;;;;;5212866;28;20439;-69
2023/10/05 13:19:18;;;;;;;2.72;1.40;;;26.40;1.00;;;;;;5211825;28;20158;-67
2023/10/05 13:21:52;;;;;;;7.47;1.60;;;26.50;1.00;;;;;;5207114;28;20513;-67
2023/10/05 13:24:26;;;;;;;2.90;1.60;;;25.80;1.00;;;;;;5176724;28;20236;-67
2023/10/05 13:27:07;;;;;;;2.65;1.60;;;25.50;99.90;;;;;;5214678;28;20064;-69
2023/10/05 13:29:42;;;;;;;2.70;1.58;;;25.50;99.90;;;;;;5194771;28;20075;-68
2023/10/05 13:32:18;;;;;;;2.35;1.55;;;25.30;99.90;;;;;;5226866;28;20167;-69
2023/10/05 13:34:52;;;;;;;2.40;1.42;;;25.60;99.90;;;;;;5212022;28;20032;-68
2023/10/05 13:37:27;;;;;;;2.27;1.60;;;26.00;99.90;;;;;;5201595;28;20051;-69
2023/10/05 13:40:03;;;;;;;2.58;1.42;;;26.20;1.00;;;;;;5215832;28;20277;-68
2023/10/05 13:42:35;;;;;;;1.20;1.10;;;25.80;1.00;;;;;;5194550;28;20036;-68
2023/10/05 13:45:10;;;;;;;1.92;1.38;;;25.90;99.90;;;;;;5222363;28;20041;-67
2023/10/05 13:47:47;;;;;;;2.85;1.40;;;25.80;1.00;;;;;;5215214;28;20040;-68
2023/10/05 13:50:22;;;;;;;2.15;1.15;;;25.70;99.90;;;;;;5192940;28;20367;-68
2023/10/05 13:52:57;;;;;;;1.70;1.50;;;25.70;1.00;;;;;;5204760;28;20029;-69
2023/10/05 13:55:35;;;;;;;1.67;1.25;;;25.30;99.90;;;;;;5208696;28;20064;-68
2023/10/05 13:58:06;;;;;;;2.70;1.77;;;25.20;1.00;;;;;;5204519;28;20463;-68
2023/10/05 14:00:41;;;;;;;2.45;1.55;;;25.20;1.00;;;;;;5209687;28;20377;-68
2023/10/05 14:03:14;;;;;;;3.03;1.55;;;25.00;99.90;;;;;;5214182;28;20028;-69
2023/10/05 14:05:50;;;;;;;2.35;1.50;;;25.40;99.90;;;;;;5208938;28;20722;-68